Time;durP1;ratioP1;P1;durP2;ratioP2;P2;SDS_P1;SDS_P2;PMS_P1;PMS_P2;Temp;Humidity;BMP_temperature;BMP_pressure;BME280_temperature;BME280_humidity;BME280_pressure;Samples;Min_cycle;Max_cycle;Signal;HPM_P1;HPM_P2
2022/03/26 00:01:51;;;;;;;16.63;8.63;;;;;;;9.53;47.27;101265.94;5092929;28;20392;-77
2022/03/26 00:04:20;;;;;;;22.17;9.48;;;;;;;9.53;47.45;101268.59;5092832;28;20040;-77
2022/03/26 00:06:49;;;;;;;19.92;8.88;;;;;;;9.50;47.58;101267.88;5092570;28;20040;-77
2022/03/26 00:09:17;;;;;;;16.60;8.60;;;;;;;9.44;47.62;101268.97;5075359;28;20401;-77
2022/03/26 00:11:46;;;;;;;17.70;8.93;;;;;;;9.47;47.88;101276.84;5092462;28;20040;-80
2022/03/26 00:14:14;;;;;;;17.58;8.38;;;;;;;9.48;47.75;101272.41;5092714;28;20443;-79
2022/03/26 00:16:42;;;;;;;18.88;8.68;;;;;;;9.49;48.03;101272.34;5092713;28;20048;-79
2022/03/26 00:19:11;;;;;;;18.27;8.27;;;;;;;9.44;47.86;101266.31;5092911;28;20051;-79
2022/03/26 00:21:39;;;;;;;15.45;8.82;;;;;;;9.46;48.11;101275.13;5093000;28;20047;-80
2022/03/26 00:24:09;;;;;;;18.85;8.88;;;;;;;9.37;48.19;101272.81;5096737;28;20123;-79
2022/03/26 00:26:37;;;;;;;17.10;8.88;;;;;;;9.38;48.25;101274.56;5096460;28;20046;-79
2022/03/26 00:29:05;;;;;;;14.45;9.15;;;;;;;9.34;48.35;101270.25;5096884;28;20040;-79
2022/03/26 00:31:35;;;;;;;17.20;9.23;;;;;;;9.41;48.56;101269.09;5096503;28;20071;-78
2022/03/26 00:34:04;;;;;;;17.92;8.98;;;;;;;9.38;48.45;101269.22;5096865;28;20040;-78
2022/03/26 00:36:32;;;;;;;16.42;8.93;;;;;;;9.32;48.73;101264.13;5096467;28;20059;-80
2022/03/26 00:39:00;;;;;;;16.27;9.43;;;;;;;9.31;48.82;101265.06;5096306;28;20072;-79
2022/03/26 00:41:30;;;;;;;18.48;9.90;;;;;;;9.32;49.05;101259.66;5096417;28;20396;-79
2022/03/26 00:43:58;;;;;;;21.50;9.90;;;;;;;9.21;49.09;101269.00;5096252;28;20074;-79
2022/03/26 00:46:27;;;;;;;18.38;9.63;;;;;;;9.12;49.42;101263.09;5096632;28;20461;-79
2022/03/26 00:48:56;;;;;;;17.88;9.65;;;;;;;8.99;49.72;101256.53;5095876;28;20057;-78
2022/03/26 00:51:24;;;;;;;19.52;9.70;;;;;;;8.95;49.89;101249.56;5095959;28;20054;-82
2022/03/26 00:53:55;;;;;;;18.10;9.15;;;;;;;8.83;50.27;101250.88;5095738;28;20485;-81
2022/03/26 00:56:23;;;;;;;17.35;9.35;;;;;;;8.79;50.72;101254.59;5078049;28;20055;-81
2022/03/26 00:58:53;;;;;;;19.40;9.65;;;;;;;8.74;50.41;101245.91;5095567;28;20089;-81
2022/03/26 01:01:21;;;;;;;22.70;9.25;;;;;;;8.73;50.95;101248.63;5095617;28;20489;-81
2022/03/26 01:03:50;;;;;;;17.73;9.00;;;;;;;8.68;50.68;101247.91;5077650;28;20552;-81
2022/03/26 01:06:19;;;;;;;20.23;9.55;;;;;;;8.62;50.97;101240.19;5096053;28;20044;-81
2022/03/26 01:08:48;;;;;;;17.58;9.32;;;;;;;8.56;51.15;101247.44;5095758;28;20114;-81
2022/03/26 01:11:17;;;;;;;19.52;9.18;;;;;;;8.47;51.39;101250.44;5095862;28;20051;-81
2022/03/26 01:13:45;;;;;;;17.42;8.65;;;;;;;8.38;51.77;101258.72;5095695;28;20044;-81
2022/03/26 01:16:15;;;;;;;18.05;8.73;;;;;;;8.36;52.17;101257.06;5095898;28;20040;-78
2022/03/26 01:18:43;;;;;;;15.77;8.70;;;;;;;8.49;52.23;101258.34;5095873;28;20047;-78
2022/03/26 01:21:11;;;;;;;16.25;8.32;;;;;;;8.38;52.33;101257.84;5095500;28;20109;-78
2022/03/26 01:23:40;;;;;;;16.58;9.25;;;;;;;8.40;52.44;101262.22;5095736;28;20055;-78
2022/03/26 01:26:08;;;;;;;17.23;8.90;;;;;;;8.47;52.11;101257.53;5095756;28;20040;-78
2022/03/26 01:28:36;;;;;;;16.13;8.05;;;;;;;8.55;52.14;101256.34;5095266;28;20040;-78
2022/03/26 01:31:05;;;;;;;15.95;9.25;;;;;;;8.49;52.05;101251.25;5095305;28;20036;-78
2022/03/26 01:33:35;;;;;;;14.45;8.02;;;;;;;8.52;52.11;101250.28;5094865;28;20094;-83
2022/03/26 01:36:04;;;;;;;18.05;8.82;;;;;;;8.39;52.62;101254.28;5094719;28;20089;-83
2022/03/26 01:38:32;;;;;;;13.63;8.27;;;;;;;8.27;52.91;101243.13;5095176;28;20044;-83
2022/03/26 01:41:00;;;;;;;19.15;8.73;;;;;;;8.26;53.10;101248.50;5095121;28;20048;-82
2022/03/26 01:43:28;;;;;;;21.15;9.10;;;;;;;8.29;53.08;101237.75;5095319;28;20508;-82
2022/03/26 01:45:57;;;;;;;17.25;8.77;;;;;;;8.21;53.46;101235.38;5095000;28;20036;-82
2022/03/26 01:48:25;;;;;;;16.30;8.70;;;;;;;8.14;53.76;101243.63;5094985;28;20139;-83
2022/03/26 01:50:55;;;;;;;16.88;9.10;;;;;;;8.07;53.93;101236.75;5094948;28;20473;-82
2022/03/26 01:53:23;;;;;;;14.35;8.20;;;;;;;8.00;54.15;101242.28;5095125;28;20036;-79
2022/03/26 01:55:52;;;;;;;16.50;9.00;;;;;;;7.97;54.40;101239.72;5094665;28;20048;-79
2022/03/26 01:58:20;;;;;;;19.65;8.70;;;;;;;7.82;54.88;101248.22;5094984;28;20542;-79
2022/03/26 02:00:48;;;;;;;18.35;9.00;;;;;;;7.97;54.42;101247.69;5094409;28;20127;-80
2022/03/26 02:03:17;;;;;;;19.60;9.18;;;;;;;7.92;54.43;101239.03;5095059;28;20053;-80
2022/03/26 02:05:45;;;;;;;18.00;9.05;;;;;;;7.96;54.05;101242.44;5094652;28;20481;-79
2022/03/26 02:08:15;;;;;;;13.93;7.85;;;;;;;7.81;54.55;101240.28;5094594;28;20097;-80
2022/03/26 02:10:43;;;;;;;17.75;9.40;;;;;;;7.91;54.01;101242.63;5076793;28;20044;-80
2022/03/26 02:13:12;;;;;;;20.33;9.25;;;;;;;7.62;55.29;101232.91;5094755;28;20047;-80
2022/03/26 02:15:44;;;;;;;16.38;8.63;;;;;;;7.49;55.61;101244.00;5094893;28;20066;-80
2022/03/26 02:18:12;;;;;;;18.80;9.10;;;;;;;7.31;56.48;101238.34;5076362;28;20048;-79
2022/03/26 02:20:43;;;;;;;20.63;9.35;;;;;;;7.26;56.88;101237.63;5094570;28;20059;-78
2022/03/26 02:23:12;;;;;;;21.40;9.05;;;;;;;7.20;57.19;101243.09;5094075;28;20074;-78
2022/03/26 02:25:40;;;;;;;17.20;8.68;;;;;;;7.16;57.45;101244.13;5094518;28;20093;-78
2022/03/26 02:28:09;;;;;;;16.75;8.95;;;;;;;7.13;57.53;101238.91;5094195;28;20040;-78
2022/03/26 02:30:37;;;;;;;16.70;8.73;;;;;;;7.30;57.18;101239.25;5094404;28;20044;-79
2022/03/26 02:33:06;;;;;;;18.85;8.70;;;;;;;7.36;56.84;101238.22;5094163;28;20090;-79
2022/03/26 02:35:34;;;;;;;20.42;8.88;;;;;;;7.29;57.22;101242.81;5094554;28;20109;-79
2022/03/26 02:38:04;;;;;;;18.20;9.25;;;;;;;7.34;56.94;101240.91;5093916;28;20068;-79
2022/03/26 02:40:32;;;;;;;18.13;8.48;;;;;;;7.37;56.72;101240.81;5094189;28;20497;-78
2022/03/26 02:43:00;;;;;;;21.33;9.15;;;;;;;7.49;56.38;101238.69;5093925;28;20040;-82
2022/03/26 02:45:29;;;;;;;16.40;9.10;;;;;;;7.41;56.49;101231.81;5092992;28;20048;-83
2022/03/26 02:47:58;;;;;;;17.00;8.32;;;;;;;7.41;56.51;101237.13;5093551;28;20047;-82
2022/03/26 02:50:26;;;;;;;17.45;8.95;;;;;;;7.36;56.64;101239.06;5093936;28;20048;-81
2022/03/26 02:52:54;;;;;;;16.75;8.65;;;;;;;7.39;56.51;101235.44;5093398;28;20040;-81
2022/03/26 02:55:24;;;;;;;19.48;8.77;;;;;;;7.37;56.91;101239.94;5093661;28;20067;-81
2022/03/26 02:57:52;;;;;;;16.88;8.90;;;;;;;7.30;57.06;101233.94;5093545;28;20036;-84
2022/03/26 03:00:21;;;;;;;19.25;9.27;;;;;;;7.24;57.38;101239.47;5093584;28;20557;-84
2022/03/26 03:02:49;;;;;;;19.90;9.25;;;;;;;7.16;57.60;101238.81;5093281;28;20040;-79
2022/03/26 03:05:17;;;;;;;19.80;9.00;;;;;;;7.01;58.28;101239.28;5093904;28;20097;-79
2022/03/26 03:07:46;;;;;;;15.82;8.23;;;;;;;6.93;58.63;101241.28;5093783;28;20055;-78
2022/03/26 03:10:15;;;;;;;20.15;9.60;;;;;;;6.81;59.17;101240.72;5093420;28;20086;-79
2022/03/26 03:12:45;;;;;;;20.52;8.73;;;;;;;6.75;59.12;101235.59;5093655;28;20040;-79
2022/03/26 03:15:17;;;;;;;22.15;9.00;;;;;;;6.70;59.48;101237.53;5093524;28;20101;-79
2022/03/26 03:17:46;;;;;;;23.40;10.85;;;;;;;6.59;59.54;101234.31;5093271;28;20072;-79
2022/03/26 03:20:16;;;;;;;24.00;10.73;;;;;;;6.49;59.58;101235.47;5093600;28;20040;-79
2022/03/26 03:22:44;;;;;;;23.58;10.50;;;;;;;6.42;59.52;101240.06;5092952;28;20056;-78
2022/03/26 03:25:12;;;;;;;19.80;10.52;;;;;;;6.39;59.70;101237.50;5093331;28;20093;-79
2022/03/26 03:27:42;;;;;;;27.38;10.82;;;;;;;6.37;59.79;101239.34;5093502;28;20051;-78
2022/03/26 03:30:12;;;;;;;25.17;10.07;;;;;;;6.39;59.71;101231.34;5093226;28;20048;-79
2022/03/26 03:32:40;;;;;;;24.13;10.07;;;;;;;6.40;59.64;101233.94;5093793;28;20036;-79
2022/03/26 03:35:09;;;;;;;18.55;9.50;;;;;;;6.37;59.87;101233.13;5093155;28;20040;-79
2022/03/26 03:37:38;;;;;;;21.40;10.15;;;;;;;6.26;60.45;101230.78;5093059;28;20070;-78
2022/03/26 03:40:09;;;;;;;24.27;10.82;;;;;;;6.18;60.60;101232.78;5093081;28;20075;-78
2022/03/26 03:42:38;;;;;;;21.10;9.07;;;;;;;6.17;61.26;101231.91;5093186;28;20040;-79
2022/03/26 03:45:09;;;;;;;20.95;9.73;;;;;;;6.03;61.68;101234.06;5092675;28;20055;-78
2022/03/26 03:47:39;;;;;;;19.00;9.60;;;;;;;6.01;61.85;101228.78;5093402;28;20122;-79
2022/03/26 03:50:08;;;;;;;24.35;9.73;;;;;;;6.00;62.13;101223.53;5092738;28;20490;-79
2022/03/26 03:52:37;;;;;;;17.73;9.48;;;;;;;6.02;62.13;101222.59;5093178;28;20051;-81
2022/03/26 03:55:06;;;;;;;17.98;9.68;;;;;;;6.08;62.10;101221.56;5093009;28;20063;-78
2022/03/26 03:57:38;;;;;;;22.25;9.40;;;;;;;6.07;61.98;101225.09;5095079;28;20040;-78
2022/03/26 04:00:07;;;;;;;19.40;9.32;;;;;;;6.09;62.23;101223.31;5096829;28;20397;-78
2022/03/26 04:02:36;;;;;;;20.08;9.70;;;;;;;5.98;62.57;101225.34;5097121;28;20043;-79
2022/03/26 04:05:09;;;;;;;21.85;10.20;;;;;;;5.91;62.91;101218.47;5096664;28;20078;-78
2022/03/26 04:07:44;;;;;;;20.50;9.55;;;;;;;5.86;63.20;101228.28;5097098;28;20044;-79
2022/03/26 04:10:13;;;;;;;19.60;9.77;;;;;;;5.87;63.10;101222.94;5096351;28;20386;-78
2022/03/26 04:12:43;;;;;;;22.63;9.50;;;;;;;5.88;63.15;101234.41;5096963;28;20048;-78
2022/03/26 04:15:14;;;;;;;19.33;9.07;;;;;;;5.95;62.89;101231.59;5096923;28;20123;-78
2022/03/26 04:17:42;;;;;;;23.30;10.13;;;;;;;5.97;63.40;101224.47;5096548;28;20040;-78
2022/03/26 04:20:12;;;;;;;20.80;9.77;;;;;;;5.94;63.11;101239.59;5096687;28;20389;-78
2022/03/26 04:22:40;;;;;;;16.98;8.80;;;;;;;6.18;62.08;101246.91;5096859;28;20109;-78
2022/03/26 04:25:10;;;;;;;17.35;8.77;;;;;;;6.01;62.92;101243.81;5096576;28;20044;-79
2022/03/26 04:27:43;;;;;;;19.77;9.85;;;;;;;5.87;63.64;101251.19;5096423;28;20046;-79
2022/03/26 04:30:12;;;;;;;19.02;9.85;;;;;;;5.87;63.78;101248.53;5096577;28;20044;-78
2022/03/26 04:32:41;;;;;;;22.08;10.52;;;;;;;5.77;63.98;101242.59;5096634;28;20511;-80
2022/03/26 04:35:11;;;;;;;20.40;10.38;;;;;;;5.75;63.85;101240.00;5096441;28;20399;-78
2022/03/26 04:37:40;;;;;;;19.05;10.43;;;;;;;5.80;64.04;101247.84;5096635;28;20032;-80
2022/03/26 04:40:11;;;;;;;18.70;10.23;;;;;;;5.87;63.50;101246.75;5096322;28;20050;-83
2022/03/26 04:42:42;;;;;;;24.42;10.07;;;;;;;5.86;63.57;101245.03;5096596;28;20086;-83
2022/03/26 04:45:11;;;;;;;22.60;10.93;;;;;;;5.92;63.53;101250.22;5096033;28;20047;-83
2022/03/26 04:47:41;;;;;;;23.52;10.85;;;;;;;5.91;63.88;101245.84;5096509;28;20040;-84
2022/03/26 04:50:12;;;;;;;27.48;11.70;;;;;;;5.91;63.48;101252.91;5095782;28;20089;-83
2022/03/26 04:52:40;;;;;;;25.67;11.40;;;;;;;5.88;63.95;101255.56;5096337;28;20474;-83
2022/03/26 04:55:10;;;;;;;27.73;10.57;;;;;;;5.84;63.98;101260.09;5096081;28;20039;-82
2022/03/26 04:57:41;;;;;;;18.40;11.48;;;;;;;5.79;64.33;101255.81;5096248;28;20044;-82
2022/03/26 05:00:11;;;;;;;22.38;11.27;;;;;;;5.73;64.74;101249.78;5095884;28;20040;-82
2022/03/26 05:02:39;;;;;;;23.58;11.75;;;;;;;5.85;64.09;101251.25;5096186;28;20059;-82
2022/03/26 05:05:09;;;;;;;25.15;10.95;;;;;;;5.94;63.97;101255.47;5095859;28;20040;-82
2022/03/26 05:07:48;;;;;;;27.38;11.15;;;;;;;6.05;63.30;101258.72;5095474;28;20127;-79
2022/03/26 05:10:18;;;;;;;21.15;10.57;;;;;;;6.05;63.52;101258.72;5094943;28;20046;-79
2022/03/26 05:12:48;;;;;;;23.52;11.63;;;;;;;6.12;63.45;101265.59;5096015;28;20068;-79
2022/03/26 05:15:17;;;;;;;31.48;12.55;;;;;;;6.23;63.00;101258.25;5095606;28;20389;-74
2022/03/26 05:17:46;;;;;;;26.55;12.90;;;;;;;6.27;62.58;101262.56;5083775;28;20052;-75
2022/03/26 05:20:14;;;;;;;33.13;13.93;;;;;;;6.31;61.69;101264.22;5075076;28;20094;-74
2022/03/26 05:22:45;;;;;;;34.00;14.77;;;;;;;6.43;61.21;101259.50;5074974;28;20114;-79
2022/03/26 05:25:15;;;;;;;28.63;12.43;;;;;;;6.29;62.25;101258.09;5075035;28;20486;-78
2022/03/26 05:27:45;;;;;;;26.02;12.63;;;;;;;6.27;62.22;101265.22;5075270;28;20562;-79
2022/03/26 05:30:14;;;;;;;28.17;13.10;;;;;;;6.34;61.88;101265.03;5074882;28;20048;-80
2022/03/26 05:32:42;;;;;;;26.98;12.18;;;;;;;6.50;61.50;101269.03;5075666;28;20105;-79
2022/03/26 05:35:13;;;;;;;29.63;13.02;;;;;;;6.76;61.24;101266.53;5074473;28;20044;-80
2022/03/26 05:37:44;;;;;;;27.30;11.25;;;;;;;7.01;60.00;101271.97;5075093;28;20044;-79
2022/03/26 05:40:16;;;;;;;24.58;11.32;;;;;;;7.16;59.54;101270.66;5074816;28;20059;-81
2022/03/26 05:42:45;;;;;;;23.33;11.13;;;;;;;7.17;59.29;101264.44;5074754;28;20041;-79
2022/03/26 05:45:14;;;;;;;20.70;10.98;;;;;;;7.02;59.62;101267.53;5074451;28;20123;-81
2022/03/26 05:47:42;;;;;;;29.90;11.48;;;;;;;7.02;60.00;101271.06;5074851;28;20405;-81
2022/03/26 05:50:12;;;;;;;23.25;11.73;;;;;;;7.27;59.29;101275.66;5074386;28;20075;-81
2022/03/26 05:52:42;;;;;;;21.80;11.50;;;;;;;7.64;58.59;101275.38;5075079;28;20063;-82
2022/03/26 05:55:11;;;;;;;22.13;11.20;;;;;;;7.92;57.78;101276.22;5074504;28;20047;-84
2022/03/26 05:57:40;;;;;;;25.52;11.65;;;;;;;7.66;58.45;101274.41;5074780;28;20119;-83
2022/03/26 06:00:12;;;;;;;25.25;11.48;;;;;;;7.80;58.06;101276.59;5074269;28;20397;-83
2022/03/26 06:02:42;;;;;;;22.95;11.63;;;;;;;7.97;57.50;101278.72;5074501;28;20045;-82
2022/03/26 06:05:11;;;;;;;26.13;12.90;;;;;;;7.86;58.01;101278.19;5074323;28;20076;-80
2022/03/26 06:07:39;;;;;;;22.58;12.60;;;;;;;8.01;57.47;101277.72;5074076;28;20520;-80
2022/03/26 06:10:08;;;;;;;25.85;12.52;;;;;;;8.15;57.00;101283.41;5073661;28;20047;-80
2022/03/26 06:12:44;;;;;;;24.73;12.77;;;;;;;8.38;56.17;101285.31;5074677;28;20045;-88
2022/03/26 06:15:12;;;;;;;23.55;13.15;;;;;;;8.17;56.75;101283.34;5074524;28;20040;-76
2022/03/26 06:18:00;;;;;;;25.73;12.35;;;;;;;8.39;56.14;101276.41;5056229;28;20493;-76
2022/03/26 06:20:29;;;;;;;27.77;12.63;;;;;;;8.48;56.03;101278.75;5073756;28;20083;-75
2022/03/26 06:22:57;;;;;;;24.10;12.30;;;;;;;8.64;55.56;101286.19;5074020;28;20094;-75
2022/03/26 06:25:30;;;;;;;27.80;12.20;;;;;;;8.65;55.47;101285.28;5073807;28;20037;-76
2022/03/26 06:28:01;;;;;;;24.15;11.65;;;;;;;8.93;54.48;101282.47;5073910;28;20448;-81
2022/03/26 06:30:30;;;;;;;21.73;11.27;;;;;;;8.96;54.54;101282.34;5073718;28;20041;-81
2022/03/26 06:32:59;;;;;;;25.80;11.80;;;;;;;8.96;54.10;101290.34;5056752;28;20135;-75
2022/03/26 06:35:27;;;;;;;25.30;11.55;;;;;;;9.22;53.32;101289.38;5074588;28;20045;-79
2022/03/26 06:37:56;;;;;;;22.13;12.52;;;;;;;9.12;53.78;101289.72;5073502;28;20044;-80
2022/03/26 06:40:24;;;;;;;25.02;12.13;;;;;;;9.12;53.68;101288.84;5073131;28;20095;-82
2022/03/26 06:42:53;;;;;;;22.88;11.85;;;;;;;9.37;53.20;101283.47;5073537;28;20127;-79
2022/03/26 06:45:22;;;;;;;22.10;11.98;;;;;;;9.46;52.49;101285.78;5072890;28;20055;-80
2022/03/26 06:47:51;;;;;;;25.25;12.02;;;;;;;9.59;51.99;101292.34;5073477;28;20382;-81
2022/03/26 06:50:19;;;;;;;17.52;10.55;;;;;;;9.72;51.52;101293.56;5073098;28;20036;-81
2022/03/26 06:52:48;;;;;;;23.35;12.02;;;;;;;9.65;50.55;101289.44;5073461;28;20148;-79
2022/03/26 06:55:16;;;;;;;21.15;12.02;;;;;;;9.75;51.10;101292.63;5073225;28;20040;-79
2022/03/26 06:57:45;;;;;;;20.55;11.73;;;;;;;9.90;50.83;101297.31;5073846;28;20036;-79
2022/03/26 07:00:15;;;;;;;21.45;11.88;;;;;;;10.07;50.28;101301.94;5072990;28;20044;-76
2022/03/26 07:02:45;;;;;;;23.67;12.60;;;;;;;10.16;49.85;101296.22;5073415;28;20071;-77
2022/03/26 07:05:15;;;;;;;25.65;13.23;;;;;;;10.44;49.60;101298.63;5073548;28;20055;-77
2022/03/26 07:07:43;;;;;;;23.40;12.95;;;;;;;10.34;49.50;101296.44;5073775;28;20053;-78
2022/03/26 07:10:12;;;;;;;23.73;12.63;;;;;;;10.48;48.92;101302.88;5073167;28;20048;-79
2022/03/26 07:12:41;;;;;;;22.73;13.13;;;;;;;10.61;48.74;101295.22;5073432;28;20513;-79
2022/03/26 07:15:09;;;;;;;24.80;13.48;;;;;;;10.58;48.70;101300.69;5073391;28;20068;-79
2022/03/26 07:17:39;;;;;;;28.50;13.63;;;;;;;10.73;48.32;101302.69;5073443;28;20393;-79
2022/03/26 07:20:11;;;;;;;27.08;12.90;;;;;;;10.79;48.28;101304.22;5073032;28;20086;-75
2022/03/26 07:22:39;;;;;;;28.63;12.68;;;;;;;10.74;48.00;101298.22;5072914;28;20053;-77
2022/03/26 07:25:09;;;;;;;23.90;13.23;;;;;;;10.70;49.04;101294.81;5073059;28;20051;-80
2022/03/26 07:27:40;;;;;;;23.67;13.47;;;;;;;10.77;48.70;101300.75;5072910;28;20036;-75
2022/03/26 07:30:11;;;;;;;22.88;13.23;;;;;;;10.81;48.46;101302.38;5072760;28;20040;-75
2022/03/26 07:32:39;;;;;;;24.45;12.52;;;;;;;10.96;48.13;101295.47;5072130;28;20490;-76
2022/03/26 07:35:10;;;;;;;26.85;13.38;;;;;;;11.07;48.12;101294.03;5072700;28;20081;-76
2022/03/26 07:37:38;;;;;;;25.10;12.25;;;;;;;11.19;47.25;101295.25;5073127;28;20389;-76
2022/03/26 07:40:07;;;;;;;25.08;12.95;;;;;;;11.18;47.46;101299.75;5072676;28;20442;-76
2022/03/26 07:42:36;;;;;;;23.08;13.68;;;;;;;11.32;46.37;101296.44;5089897;28;20044;-76
2022/03/26 07:45:06;;;;;;;25.10;14.00;;;;;;;11.43;46.31;101299.47;5091687;28;20048;-76
2022/03/26 07:47:35;;;;;;;23.08;12.85;;;;;;;11.49;45.53;101303.69;5091723;28;20040;-76
2022/03/26 07:50:04;;;;;;;22.92;13.10;;;;;;;11.68;44.96;101303.66;5091454;28;20048;-76
2022/03/26 07:52:34;;;;;;;25.45;12.80;;;;;;;11.57;44.32;101300.63;5089162;28;20075;-76
2022/03/26 07:55:02;;;;;;;23.13;12.85;;;;;;;11.71;43.94;101300.84;5092843;28;20044;-75
2022/03/26 07:57:31;;;;;;;22.60;12.63;;;;;;;11.81;44.19;101299.47;5092725;28;20048;-75
2022/03/26 08:00:00;;;;;;;20.40;12.20;;;;;;;11.70;44.11;101291.09;5093014;28;20085;-74
2022/03/26 08:02:28;;;;;;;22.35;12.93;;;;;;;11.73;44.64;101298.94;5092540;28;20520;-75
2022/03/26 08:04:56;;;;;;;24.33;13.60;;;;;;;11.79;44.32;101285.31;5092963;28;20048;-75
2022/03/26 08:07:24;;;;;;;23.98;13.52;;;;;;;11.73;44.45;101290.94;5092727;28;20173;-76
2022/03/26 08:09:54;;;;;;;21.52;13.35;;;;;;;11.79;44.47;101284.44;5092901;28;20043;-79
2022/03/26 08:12:22;;;;;;;23.58;13.27;;;;;;;11.82;43.60;101278.97;5074780;28;20080;-77
2022/03/26 08:14:51;;;;;;;25.83;13.43;;;;;;;12.03;43.20;101278.75;5092599;28;20401;-79
2022/03/26 08:17:19;;;;;;;22.42;13.10;;;;;;;12.27;42.50;101275.81;5074437;28;20044;-76
2022/03/26 08:19:49;;;;;;;24.88;12.73;;;;;;;12.16;42.49;101271.00;5092540;28;20054;-76
2022/03/26 08:22:17;;;;;;;21.55;13.48;;;;;;;12.12;42.26;101277.44;5092274;28;20496;-77
2022/03/26 08:24:45;;;;;;;25.55;13.75;;;;;;;12.11;43.44;101281.06;5092517;28;20144;-76
2022/03/26 08:27:15;;;;;;;22.92;13.35;;;;;;;12.34;43.39;101277.19;5092023;28;20051;-77
2022/03/26 08:29:43;;;;;;;23.88;14.43;;;;;;;12.50;42.76;101278.16;5092223;28;20040;-76
2022/03/26 08:32:12;;;;;;;24.35;15.00;;;;;;;12.66;42.52;101282.72;5092389;28;20089;-76
2022/03/26 08:34:40;;;;;;;26.88;15.35;;;;;;;12.68;42.95;101286.19;5092634;28;20072;-75
2022/03/26 08:37:08;;;;;;;28.83;16.48;;;;;;;12.73;42.32;101284.97;5092345;28;20400;-75
2022/03/26 08:39:36;;;;;;;25.88;14.90;;;;;;;12.77;42.36;101283.00;5092225;28;20040;-76
2022/03/26 08:42:06;;;;;;;29.67;15.35;;;;;;;12.73;42.49;101284.09;5092940;28;20048;-76
2022/03/26 08:44:36;;;;;;;28.70;14.65;;;;;;;12.92;42.09;101284.00;5096009;28;20126;-76
2022/03/26 08:47:06;;;;;;;23.73;13.40;;;;;;;13.14;40.85;101284.59;5096397;28;20119;-75
2022/03/26 08:49:36;;;;;;;23.73;13.68;;;;;;;13.22;40.16;101276.13;5096142;28;20534;-75
2022/03/26 08:52:05;;;;;;;22.80;13.25;;;;;;;13.15;40.25;101287.19;5096375;28;20044;-75
2022/03/26 08:54:33;;;;;;;23.88;13.48;;;;;;;13.14;40.05;101285.44;5095517;28;20131;-74
2022/03/26 08:57:02;;;;;;;22.88;13.57;;;;;;;13.22;40.18;101292.22;5095663;28;20489;-76
2022/03/26 08:59:30;;;;;;;23.63;14.10;;;;;;;13.40;39.52;101285.84;5095836;28;20051;-76
2022/03/26 09:02:00;;;;;;;23.83;13.75;;;;;;;13.55;39.80;101281.47;5096222;28;20044;-76
2022/03/26 09:04:28;;;;;;;27.52;13.27;;;;;;;13.75;39.55;101282.06;5096281;28;20411;-74
2022/03/26 09:06:57;;;;;;;22.92;14.60;;;;;;;13.86;39.50;101283.25;5095588;28;20040;-75
2022/03/26 09:09:25;;;;;;;22.23;13.55;;;;;;;14.02;39.37;101287.66;5095321;28;20618;-75
2022/03/26 09:11:54;;;;;;;24.63;14.88;;;;;;;14.06;39.14;101279.41;5095778;28;20105;-74
2022/03/26 09:14:22;;;;;;;28.83;14.20;;;;;;;13.94;39.29;101276.50;5095131;28;20130;-74
2022/03/26 09:16:51;;;;;;;23.42;14.68;;;;;;;14.00;39.30;101280.66;5095977;28;20040;-76
2022/03/26 09:19:21;;;;;;;28.70;15.90;;;;;;;14.17;38.68;101277.81;5095417;28;20040;-76
2022/03/26 09:21:50;;;;;;;30.95;15.55;;;;;;;14.16;38.45;101276.09;5076961;28;20121;-76
2022/03/26 09:24:18;;;;;;;24.98;15.05;;;;;;;14.10;38.42;101271.13;5095257;28;20044;-76
2022/03/26 09:26:47;;;;;;;27.35;15.35;;;;;;;14.26;38.47;101265.69;5095363;28;20044;-76
2022/03/26 09:29:16;;;;;;;24.25;15.43;;;;;;;14.22;38.50;101266.84;5095335;28;20105;-76
2022/03/26 09:31:45;;;;;;;26.55;16.05;;;;;;;14.17;38.56;101268.91;5094992;28;20074;-75
2022/03/26 09:34:15;;;;;;;31.77;15.55;;;;;;;14.16;38.89;101267.19;5095053;28;20498;-76
2022/03/26 09:36:48;;;;;;;23.25;14.93;;;;;;;14.49;38.29;101262.53;5094962;28;20044;-76
2022/03/26 09:39:16;;;;;;;23.88;13.43;;;;;;;14.77;37.58;101259.03;5095040;28;20481;-76
2022/03/26 09:41:46;;;;;;;21.33;13.80;;;;;;;14.71;37.09;101259.41;5094623;28;20514;-76
2022/03/26 09:44:14;;;;;;;23.75;15.05;;;;;;;14.69;37.67;101247.03;5094813;28;20048;-76
2022/03/26 09:46:45;;;;;;;25.50;13.55;;;;;;;14.92;36.85;101251.84;5094937;28;20117;-75
2022/03/26 09:49:16;;;;;;;28.17;13.80;;;;;;;15.05;36.54;101251.91;5094613;28;20119;-76
2022/03/26 09:51:46;;;;;;;27.48;14.23;;;;;;;14.92;36.47;101253.66;5094568;28;20069;-76
2022/03/26 09:54:15;;;;;;;24.83;13.32;;;;;;;14.79;37.23;101243.69;5093850;28;20134;-76
2022/03/26 09:56:44;;;;;;;24.40;13.32;;;;;;;15.27;36.32;101244.25;5093655;28;20082;-75
2022/03/26 09:59:12;;;;;;;26.30;13.60;;;;;;;15.14;36.57;101240.59;5094251;28;20040;-75
2022/03/26 10:01:41;;;;;;;24.02;14.05;;;;;;;15.10;36.54;101241.75;5094127;28;20060;-76
2022/03/26 10:04:14;;;;;;;24.77;12.23;;;;;;;15.18;36.13;101239.44;5094487;28;20051;-76
2022/03/26 10:06:49;;;;;;;18.50;10.48;;;;;;;15.68;35.23;101232.66;5094558;28;20123;-76
2022/03/26 10:09:28;;;;;;;21.75;10.75;;;;;;;15.80;34.62;101237.19;5094714;28;20527;-76
2022/03/26 10:12:01;;;;;;;18.63;10.05;;;;;;;15.80;34.35;101225.59;5094245;28;20052;-75
2022/03/26 10:14:44;;;;;;;15.90;9.20;;;;;;;15.69;34.24;101232.53;5094152;28;20093;-74
2022/03/26 10:17:15;;;;;;;18.45;9.65;;;;;;;15.73;34.23;101230.53;5094139;28;20481;-76
2022/03/26 10:19:46;;;;;;;18.58;9.35;;;;;;;15.73;34.19;101231.38;5093924;28;20119;-76
2022/03/26 10:22:31;;;;;;;17.17;9.07;;;;;;;15.86;33.97;101220.66;5093942;28;20489;-75
2022/03/26 10:25:01;;;;;;;16.35;9.55;;;;;;;15.79;33.36;101224.72;5094023;28;20405;-76
2022/03/26 10:27:34;;;;;;;20.27;9.60;;;;;;;15.57;34.08;101214.50;5094010;28;20052;-76
2022/03/26 10:30:08;;;;;;;20.40;10.77;;;;;;;15.87;34.13;101217.00;5094397;28;20097;-75
2022/03/26 10:32:45;;;;;;;17.73;10.05;;;;;;;15.99;33.15;101216.16;5093591;28;20485;-75
2022/03/26 10:35:20;;;;;;;19.10;10.23;;;;;;;15.99;33.35;101205.41;5093961;28;20040;-75
2022/03/26 10:37:58;;;;;;;18.23;9.95;;;;;;;15.98;33.49;101198.31;5094639;28;20040;-75
2022/03/26 10:40:35;;;;;;;18.70;10.00;;;;;;;16.17;33.34;101195.22;5093740;28;20110;-76
2022/03/26 10:43:08;;;;;;;18.30;10.30;;;;;;;16.40;32.73;101195.44;5094095;28;20079;-76
2022/03/26 10:45:38;;;;;;;;;;;;;;;16.19;33.08;101184.34;5094152;28;20082;-76
2022/03/26 10:48:10;;;;;;;21.48;10.52;;;;;;;16.13;33.42;101190.16;5093907;28;19928;-76
2022/03/26 10:50:39;;;;;;;16.00;7.80;;;;;;;16.42;30.65;101185.47;5093601;28;20050;-75
2022/03/26 10:53:13;;;;;;;14.40;7.35;;;;;;;16.26;30.59;101172.19;5075673;28;20048;-75
2022/03/26 10:55:43;;;;;;;14.82;8.30;;;;;;;16.13;31.52;101166.81;5093595;28;20074;-75
2022/03/26 10:58:13;;;;;;;14.93;7.72;;;;;;;16.19;31.23;101163.66;5093556;28;20044;-75
2022/03/26 11:00:43;;;;;;;14.70;7.47;;;;;;;16.49;30.76;101162.50;5093107;28;20043;-75
2022/03/26 11:03:17;;;;;;;14.10;7.03;;;;;;;17.02;30.12;101153.31;5093650;28;20054;-75
2022/03/26 11:05:47;;;;;;;9.15;5.13;;;;;;;17.25;28.47;101161.53;5092949;28;20079;-75
2022/03/26 11:08:18;;;;;;;11.00;6.28;;;;;;;16.96;27.85;101156.44;5092927;28;20040;-75
2022/03/26 11:10:47;;;;;;;11.75;6.18;;;;;;;17.16;28.03;101155.84;5093205;28;20051;-75
2022/03/26 11:13:16;;;;;;;11.48;6.13;;;;;;;17.09;28.15;101145.66;5075168;28;20386;-75
2022/03/26 11:15:49;;;;;;;11.57;5.65;;;;;;;17.30;27.07;101156.69;5092903;28;20040;-75
2022/03/26 11:18:31;;;;;;;8.73;5.27;;;;;;;17.33;27.12;101137.56;5093512;28;20065;-75
2022/03/26 11:21:44;;;;;;;13.18;5.60;;;;;;;17.55;26.96;101144.91;5093367;28;20271;-75
2022/03/26 11:24:44;;;;;;;10.63;5.40;;;;;;;17.31;26.28;101147.63;4998178;28;20454;-74
2022/03/26 11:27:31;;;;;;;13.38;5.55;;;;;;;17.22;25.81;101149.16;5092934;28;20549;-75
2022/03/26 11:30:05;;;;;;;12.27;6.85;;;;;;;17.03;26.01;101138.88;5091907;28;20047;-75